sensor_id;sensor_type;location;lat;lon;timestamp;pressure;altitude;pressure_sealevel;temperature;humidity
49055;BME280;35405;52.344;14.530;2023-12-04T00:01:30;101596.31;;;-1.16;85.84
49055;BME280;35405;52.344;14.530;2023-12-04T00:03:55;101589.38;;;-1.19;86.30
49055;BME280;35405;52.344;14.530;2023-12-04T00:06:21;101589.91;;;-1.26;85.08
49055;BME280;35405;52.344;14.530;2023-12-04T00:08:46;101601.13;;;-1.24;85.00
49055;BME280;35405;52.344;14.530;2023-12-04T00:11:11;101592.75;;;-1.20;85.75
49055;BME280;35405;52.344;14.530;2023-12-04T00:13:36;101594.97;;;-1.27;85.39
49055;BME280;35405;52.344;14.530;2023-12-04T00:16:02;101596.38;;;-1.34;84.96
49055;BME280;35405;52.344;14.530;2023-12-04T00:18:27;101595.03;;;-1.45;85.00
49055;BME280;35405;52.344;14.530;2023-12-04T00:20:52;101594.75;;;-1.51;85.01
49055;BME280;35405;52.344;14.530;2023-12-04T00:23:17;101596.44;;;-1.52;85.21
49055;BME280;35405;52.344;14.530;2023-12-04T00:25:43;101594.88;;;-1.48;85.49
49055;BME280;35405;52.344;14.530;2023-12-04T00:28:08;101596.91;;;-1.41;85.67
49055;BME280;35405;52.344;14.530;2023-12-04T00:30:33;101591.41;;;-1.31;85.90
49055;BME280;35405;52.344;14.530;2023-12-04T00:32:59;101591.13;;;-1.37;84.94
49055;BME280;35405;52.344;14.530;2023-12-04T00:35:24;101595.25;;;-1.41;85.10
49055;BME280;35405;52.344;14.530;2023-12-04T00:37:49;101603.63;;;-1.45;85.14
49055;BME280;35405;52.344;14.530;2023-12-04T00:40:14;101607.47;;;-1.54;84.30
49055;BME280;35405;52.344;14.530;2023-12-04T00:42:39;101601.25;;;-1.59;84.00
49055;BME280;35405;52.344;14.530;2023-12-04T00:45:05;101600.97;;;-1.66;83.57
49055;BME280;35405;52.344;14.530;2023-12-04T00:47:30;101598.00;;;-1.75;83.19
49055;BME280;35405;52.344;14.530;2023-12-04T00:49:56;101602.25;;;-1.75;83.88
49055;BME280;35405;52.344;14.530;2023-12-04T00:52:21;101595.16;;;-1.99;83.24
49055;BME280;35405;52.344;14.530;2023-12-04T00:54:46;101592.56;;;-2.18;83.12
49055;BME280;35405;52.344;14.530;2023-12-04T00:57:11;101599.28;;;-2.20;83.42
49055;BME280;35405;52.344;14.530;2023-12-04T00:59:36;101591.59;;;-2.20;82.84
49055;BME280;35405;52.344;14.530;2023-12-04T01:02:02;101597.47;;;-2.23;82.75
49055;BME280;35405;52.344;14.530;2023-12-04T01:04:27;101591.75;;;-2.35;81.73
49055;BME280;35405;52.344;14.530;2023-12-04T01:06:52;101599.00;;;-2.44;82.45
49055;BME280;35405;52.344;14.530;2023-12-04T01:09:17;101596.88;;;-2.53;82.18
49055;BME280;35405;52.344;14.530;2023-12-04T01:11:43;101590.34;;;-2.64;82.04
49055;BME280;35405;52.344;14.530;2023-12-04T01:14:08;101587.25;;;-2.74;82.04
49055;BME280;35405;52.344;14.530;2023-12-04T01:16:33;101596.03;;;-2.69;82.82
49055;BME280;35405;52.344;14.530;2023-12-04T01:18:59;101597.34;;;-2.78;82.39
49055;BME280;35405;52.344;14.530;2023-12-04T01:21:24;101595.31;;;-3.01;81.56
49055;BME280;35405;52.344;14.530;2023-12-04T01:23:49;101588.91;;;-2.93;82.60
49055;BME280;35405;52.344;14.530;2023-12-04T01:26:14;101598.19;;;-2.95;81.75
49055;BME280;35405;52.344;14.530;2023-12-04T01:28:40;101591.06;;;-3.00;82.18
49055;BME280;35405;52.344;14.530;2023-12-04T01:31:06;101594.63;;;-3.31;81.45
49055;BME280;35405;52.344;14.530;2023-12-04T01:33:31;101590.22;;;-3.50;81.53
49055;BME280;35405;52.344;14.530;2023-12-04T01:35:56;101587.41;;;-3.54;81.43
49055;BME280;35405;52.344;14.530;2023-12-04T01:38:21;101597.09;;;-3.49;82.04
49055;BME280;35405;52.344;14.530;2023-12-04T01:40:47;101603.28;;;-3.45;82.32
49055;BME280;35405;52.344;14.530;2023-12-04T01:43:12;101603.97;;;-3.48;81.99
49055;BME280;35405;52.344;14.530;2023-12-04T01:45:37;101607.19;;;-3.52;81.70
49055;BME280;35405;52.344;14.530;2023-12-04T01:48:03;101598.38;;;-3.41;82.12
49055;BME280;35405;52.344;14.530;2023-12-04T01:50:28;101599.50;;;-3.36;81.65
49055;BME280;35405;52.344;14.530;2023-12-04T01:52:53;101602.19;;;-3.33;81.65
49055;BME280;35405;52.344;14.530;2023-12-04T01:55:19;101603.16;;;-3.47;81.09
49055;BME280;35405;52.344;14.530;2023-12-04T01:57:45;101596.16;;;-3.51;81.03
49055;BME280;35405;52.344;14.530;2023-12-04T02:00:10;101598.66;;;-3.67;81.22
49055;BME280;35405;52.344;14.530;2023-12-04T02:02:40;101597.00;;;-3.67;82.00
49055;BME280;35405;52.344;14.530;2023-12-04T02:05:07;101603.47;;;-3.73;82.22
49055;BME280;35405;52.344;14.530;2023-12-04T02:07:33;101602.50;;;-3.75;82.61
49055;BME280;35405;52.344;14.530;2023-12-04T02:09:58;101599.53;;;-3.83;81.84
49055;BME280;35405;52.344;14.530;2023-12-04T02:12:23;101591.78;;;-3.84;82.39
49055;BME280;35405;52.344;14.530;2023-12-04T02:14:49;101586.53;;;-3.88;82.41
49055;BME280;35405;52.344;14.530;2023-12-04T02:17:15;101585.94;;;-3.82;82.88
49055;BME280;35405;52.344;14.530;2023-12-04T02:19:41;101570.00;;;-3.78;82.04
49055;BME280;35405;52.344;14.530;2023-12-04T02:22:06;101570.25;;;-3.73;81.84
49055;BME280;35405;52.344;14.530;2023-12-04T02:24:31;101574.38;;;-3.75;82.29
49055;BME280;35405;52.344;14.530;2023-12-04T02:27:00;101569.06;;;-3.95;81.48
49055;BME280;35405;52.344;14.530;2023-12-04T02:29:29;101565.88;;;-4.07;81.23
49055;BME280;35405;52.344;14.530;2023-12-04T02:31:56;101564.34;;;-4.03;81.55
49055;BME280;35405;52.344;14.530;2023-12-04T02:34:21;101566.81;;;-4.05;81.62
49055;BME280;35405;52.344;14.530;2023-12-04T02:36:48;101563.72;;;-3.99;81.62
49055;BME280;35405;52.344;14.530;2023-12-04T02:39:15;101563.94;;;-4.11;80.90
49055;BME280;35405;52.344;14.530;2023-12-04T02:41:40;101555.19;;;-4.31;80.28
49055;BME280;35405;52.344;14.530;2023-12-04T02:44:06;101551.41;;;-4.37;80.28
49055;BME280;35405;52.344;14.530;2023-12-04T02:46:31;101556.34;;;-4.40;80.97
49055;BME280;35405;52.344;14.530;2023-12-04T02:48:56;101545.41;;;-4.38;81.03
49055;BME280;35405;52.344;14.530;2023-12-04T02:51:21;101546.88;;;-4.43;80.80
49055;BME280;35405;52.344;14.530;2023-12-04T02:53:47;101545.78;;;-4.47;80.91
49055;BME280;35405;52.344;14.530;2023-12-04T02:56:12;101551.56;;;-4.51;80.72
49055;BME280;35405;52.344;14.530;2023-12-04T02:58:37;101550.81;;;-4.48;81.24
49055;BME280;35405;52.344;14.530;2023-12-04T03:01:02;101554.44;;;-4.59;80.61
49055;BME280;35405;52.344;14.530;2023-12-04T03:03:28;101543.28;;;-4.76;80.30
49055;BME280;35405;52.344;14.530;2023-12-04T03:05:53;101543.44;;;-4.73;81.22
49055;BME280;35405;52.344;14.530;2023-12-04T03:08:18;101540.53;;;-4.79;80.57
49055;BME280;35405;52.344;14.530;2023-12-04T03:10:43;101534.41;;;-4.83;80.64
49055;BME280;35405;52.344;14.530;2023-12-04T03:13:09;101530.53;;;-4.76;81.12
49055;BME280;35405;52.344;14.530;2023-12-04T03:15:34;101527.91;;;-4.78;81.22
49055;BME280;35405;52.344;14.530;2023-12-04T03:17:59;101522.44;;;-4.84;81.46
49055;BME280;35405;52.344;14.530;2023-12-04T03:20:25;101516.72;;;-4.94;80.75
49055;BME280;35405;52.344;14.530;2023-12-04T03:22:51;101528.94;;;-4.89;81.31
49055;BME280;35405;52.344;14.530;2023-12-04T03:25:16;101528.97;;;-5.04;80.89
49055;BME280;35405;52.344;14.530;2023-12-04T03:27:41;101528.69;;;-5.08;80.64
49055;BME280;35405;52.344;14.530;2023-12-04T03:30:06;101522.34;;;-5.15;80.81
49055;BME280;35405;52.344;14.530;2023-12-04T03:32:32;101524.72;;;-5.18;81.61
49055;BME280;35405;52.344;14.530;2023-12-04T03:34:57;101527.13;;;-5.21;81.30
49055;BME280;35405;52.344;14.530;2023-12-04T03:37:22;101524.22;;;-5.27;81.08
49055;BME280;35405;52.344;14.530;2023-12-04T03:39:47;101518.91;;;-5.30;81.12
49055;BME280;35405;52.344;14.530;2023-12-04T03:42:13;101517.00;;;-5.34;81.06
49055;BME280;35405;52.344;14.530;2023-12-04T03:44:38;101514.31;;;-5.36;81.19
49055;BME280;35405;52.344;14.530;2023-12-04T03:47:03;101523.81;;;-5.48;80.71
49055;BME280;35405;52.344;14.530;2023-12-04T03:49:29;101524.06;;;-5.43;81.44
49055;BME280;35405;52.344;14.530;2023-12-04T03:51:54;101511.97;;;-5.47;81.42
49055;BME280;35405;52.344;14.530;2023-12-04T03:54:19;101519.41;;;-5.50;80.95
49055;BME280;35405;52.344;14.530;2023-12-04T03:56:44;101514.22;;;-5.52;81.16
49055;BME280;35405;52.344;14.530;2023-12-04T03:59:10;101510.81;;;-5.53;80.76
49055;BME280;35405;52.344;14.530;2023-12-04T04:01:35;101506.94;;;-5.46;81.04
49055;BME280;35405;52.344;14.530;2023-12-04T04:04:01;101512.72;;;-5.63;80.13
49055;BME280;35405;52.344;14.530;2023-12-04T04:06:26;101516.41;;;-5.58;80.68
49055;BME280;35405;52.344;14.530;2023-12-04T04:08:51;101511.59;;;-5.54;80.36
49055;BME280;35405;52.344;14.530;2023-12-04T04:11:17;101509.81;;;-5.69;79.28
49055;BME280;35405;52.344;14.530;2023-12-04T04:13:42;101502.69;;;-5.75;80.07
49055;BME280;35405;52.344;14.530;2023-12-04T04:16:08;101509.94;;;-5.81;79.89
49055;BME280;35405;52.344;14.530;2023-12-04T04:18:37;101500.97;;;-5.89;80.18
49055;BME280;35405;52.344;14.530;2023-12-04T04:21:02;101492.97;;;-5.95;80.02
49055;BME280;35405;52.344;14.530;2023-12-04T04:23:28;101496.13;;;-5.99;80.12
49055;BME280;35405;52.344;14.530;2023-12-04T04:25:53;101485.59;;;-6.05;80.07
49055;BME280;35405;52.344;14.530;2023-12-04T04:28:18;101489.44;;;-6.12;80.09
49055;BME280;35405;52.344;14.530;2023-12-04T04:30:43;101495.97;;;-6.16;80.54
49055;BME280;35405;52.344;14.530;2023-12-04T04:33:08;101495.44;;;-6.25;79.89
49055;BME280;35405;52.344;14.530;2023-12-04T04:35:34;101495.03;;;-6.31;80.12
49055;BME280;35405;52.344;14.530;2023-12-04T04:37:59;101493.69;;;-6.39;79.90
49055;BME280;35405;52.344;14.530;2023-12-04T04:40:24;101493.69;;;-6.39;80.06
49055;BME280;35405;52.344;14.530;2023-12-04T04:42:49;101492.44;;;-6.46;79.55
49055;BME280;35405;52.344;14.530;2023-12-04T04:45:15;101492.59;;;-6.43;79.95
49055;BME280;35405;52.344;14.530;2023-12-04T04:47:40;101495.63;;;-6.35;80.35
49055;BME280;35405;52.344;14.530;2023-12-04T04:50:05;101494.63;;;-6.24;80.23
49055;BME280;35405;52.344;14.530;2023-12-04T04:52:31;101493.47;;;-6.29;80.16
49055;BME280;35405;52.344;14.530;2023-12-04T04:54:56;101488.09;;;-6.33;80.16
49055;BME280;35405;52.344;14.530;2023-12-04T04:57:21;101481.34;;;-6.33;80.75
49055;BME280;35405;52.344;14.530;2023-12-04T04:59:47;101479.94;;;-6.28;80.44
49055;BME280;35405;52.344;14.530;2023-12-04T05:02:12;101490.75;;;-6.32;80.41
49055;BME280;35405;52.344;14.530;2023-12-04T05:04:37;101494.66;;;-6.37;80.38
49055;BME280;35405;52.344;14.530;2023-12-04T05:07:02;101489.53;;;-6.24;81.39
49055;BME280;35405;52.344;14.530;2023-12-04T05:09:28;101483.47;;;-6.13;81.23
49055;BME280;35405;52.344;14.530;2023-12-04T05:11:53;101494.00;;;-6.06;81.43
49055;BME280;35405;52.344;14.530;2023-12-04T05:14:18;101490.38;;;-6.10;80.85
49055;BME280;35405;52.344;14.530;2023-12-04T05:16:43;101482.16;;;-6.06;81.13
49055;BME280;35405;52.344;14.530;2023-12-04T05:19:08;101485.75;;;-6.02;81.28
49055;BME280;35405;52.344;14.530;2023-12-04T05:21:34;101484.28;;;-5.99;80.95
49055;BME280;35405;52.344;14.530;2023-12-04T05:23:59;101480.06;;;-5.98;81.33
49055;BME280;35405;52.344;14.530;2023-12-04T05:26:24;101475.66;;;-5.86;81.66
49055;BME280;35405;52.344;14.530;2023-12-04T05:28:49;101476.44;;;-5.87;81.14
49055;BME280;35405;52.344;14.530;2023-12-04T05:31:15;101472.53;;;-5.82;81.09
49055;BME280;35405;52.344;14.530;2023-12-04T05:33:40;101462.13;;;-6.00;80.14
49055;BME280;35405;52.344;14.530;2023-12-04T05:36:05;101458.91;;;-5.97;81.45
49055;BME280;35405;52.344;14.530;2023-12-04T05:38:31;101457.75;;;-5.73;81.92
49055;BME280;35405;52.344;14.530;2023-12-04T05:40:57;101450.75;;;-5.77;81.40
49055;BME280;35405;52.344;14.530;2023-12-04T05:43:22;101454.25;;;-5.75;80.99
49055;BME280;35405;52.344;14.530;2023-12-04T05:45:47;101452.72;;;-5.86;80.63
49055;BME280;35405;52.344;14.530;2023-12-04T05:48:12;101461.97;;;-5.73;80.93
49055;BME280;35405;52.344;14.530;2023-12-04T05:50:38;101459.16;;;-5.78;80.19
49055;BME280;35405;52.344;14.530;2023-12-04T05:53:03;101453.91;;;-5.66;80.60
49055;BME280;35405;52.344;14.530;2023-12-04T05:55:28;101457.34;;;-5.66;80.26
49055;BME280;35405;52.344;14.530;2023-12-04T05:57:53;101449.59;;;-5.67;80.41
49055;BME280;35405;52.344;14.530;2023-12-04T06:00:19;101448.38;;;-5.74;79.69
49055;BME280;35405;52.344;14.530;2023-12-04T06:02:44;101452.06;;;-5.84;79.89
49055;BME280;35405;52.344;14.530;2023-12-04T06:05:10;101449.75;;;-5.79;80.05
49055;BME280;35405;52.344;14.530;2023-12-04T06:07:36;101452.31;;;-5.79;80.05
49055;BME280;35405;52.344;14.530;2023-12-04T06:10:02;101449.31;;;-5.72;79.99
49055;BME280;35405;52.344;14.530;2023-12-04T06:12:29;101448.66;;;-5.69;79.66
49055;BME280;35405;52.344;14.530;2023-12-04T06:14:54;101445.66;;;-5.77;79.73
49055;BME280;35405;52.344;14.530;2023-12-04T06:17:19;101445.19;;;-5.85;79.50
49055;BME280;35405;52.344;14.530;2023-12-04T06:19:46;101436.59;;;-5.72;80.13
49055;BME280;35405;52.344;14.530;2023-12-04T06:22:11;101437.66;;;-5.68;80.13
49055;BME280;35405;52.344;14.530;2023-12-04T06:24:36;101438.47;;;-5.69;80.04
49055;BME280;35405;52.344;14.530;2023-12-04T06:27:02;101432.22;;;-5.60;80.67
49055;BME280;35405;52.344;14.530;2023-12-04T06:29:28;101439.06;;;-5.73;79.69
49055;BME280;35405;52.344;14.530;2023-12-04T06:31:54;101433.59;;;-5.65;80.21
49055;BME280;35405;52.344;14.530;2023-12-04T06:34:19;101430.19;;;-5.65;79.93
49055;BME280;35405;52.344;14.530;2023-12-04T06:36:44;101426.59;;;-5.69;80.56
49055;BME280;35405;52.344;14.530;2023-12-04T06:39:10;101439.75;;;-5.76;80.80
49055;BME280;35405;52.344;14.530;2023-12-04T06:41:40;101440.00;;;-5.71;80.82
49055;BME280;35405;52.344;14.530;2023-12-04T06:44:05;101447.66;;;-5.71;80.50
49055;BME280;35405;52.344;14.530;2023-12-04T06:46:31;101444.41;;;-5.84;80.13
49055;BME280;35405;52.344;14.530;2023-12-04T06:49:00;101449.97;;;-5.91;79.93
49055;BME280;35405;52.344;14.530;2023-12-04T06:51:25;101448.97;;;-5.78;80.66
49055;BME280;35405;52.344;14.530;2023-12-04T06:53:50;101448.72;;;-5.68;80.73
49055;BME280;35405;52.344;14.530;2023-12-04T06:56:16;101436.44;;;-5.60;80.39
49055;BME280;35405;52.344;14.530;2023-12-04T06:58:41;101434.84;;;-5.58;80.10
49055;BME280;35405;52.344;14.530;2023-12-04T07:01:06;101438.19;;;-5.59;79.97
49055;BME280;35405;52.344;14.530;2023-12-04T07:03:31;101438.53;;;-5.53;80.49
49055;BME280;35405;52.344;14.530;2023-12-04T07:05:57;101432.06;;;-5.48;80.24
49055;BME280;35405;52.344;14.530;2023-12-04T07:08:22;101433.28;;;-5.41;80.40
49055;BME280;35405;52.344;14.530;2023-12-04T07:10:47;101433.28;;;-5.56;79.80
49055;BME280;35405;52.344;14.530;2023-12-04T07:13:12;101435.72;;;-5.58;80.32
49055;BME280;35405;52.344;14.530;2023-12-04T07:15:38;101432.84;;;-5.49;80.20
49055;BME280;35405;52.344;14.530;2023-12-04T07:18:03;101430.97;;;-5.52;80.04
49055;BME280;35405;52.344;14.530;2023-12-04T07:20:29;101436.63;;;-5.42;80.46
49055;BME280;35405;52.344;14.530;2023-12-04T07:22:54;101428.34;;;-5.38;80.74
49055;BME280;35405;52.344;14.530;2023-12-04T07:25:19;101431.09;;;-5.35;80.85
49055;BME280;35405;52.344;14.530;2023-12-04T07:27:45;101430.66;;;-5.28;80.99
49055;BME280;35405;52.344;14.530;2023-12-04T07:30:10;101429.94;;;-5.26;81.08
49055;BME280;35405;52.344;14.530;2023-12-04T07:32:36;101427.97;;;-5.00;81.79
49055;BME280;35405;52.344;14.530;2023-12-04T07:35:01;101427.78;;;-5.03;81.16
49055;BME280;35405;52.344;14.530;2023-12-04T07:37:26;101427.59;;;-4.91;81.16
49055;BME280;35405;52.344;14.530;2023-12-04T07:39:51;101432.13;;;-4.71;81.80
49055;BME280;35405;52.344;14.530;2023-12-04T07:42:17;101434.84;;;-4.68;81.08
49055;BME280;35405;52.344;14.530;2023-12-04T07:44:42;101426.03;;;-4.73;81.65
49055;BME280;35405;52.344;14.530;2023-12-04T07:47:07;101413.66;;;-4.82;81.65
49055;BME280;35405;52.344;14.530;2023-12-04T07:49:32;101403.91;;;-4.89;81.74
49055;BME280;35405;52.344;14.530;2023-12-04T07:51:58;101408.09;;;-4.75;82.62
49055;BME280;35405;52.344;14.530;2023-12-04T07:54:23;101403.59;;;-4.64;82.91
49055;BME280;35405;52.344;14.530;2023-12-04T07:56:51;101412.19;;;-4.62;82.81
49055;BME280;35405;52.344;14.530;2023-12-04T07:59:16;101400.91;;;-4.51;83.42
49055;BME280;35405;52.344;14.530;2023-12-04T08:01:41;101395.31;;;-4.44;83.32
49055;BME280;35405;52.344;14.530;2023-12-04T08:04:07;101396.66;;;-4.34;83.54
49055;BME280;35405;52.344;14.530;2023-12-04T08:06:33;101388.91;;;-4.19;83.73
49055;BME280;35405;52.344;14.530;2023-12-04T08:08:58;101381.59;;;-4.29;83.21
49055;BME280;35405;52.344;14.530;2023-12-04T08:11:24;101384.28;;;-4.26;83.53
49055;BME280;35405;52.344;14.530;2023-12-04T08:13:49;101384.13;;;-4.13;84.07
49055;BME280;35405;52.344;14.530;2023-12-04T08:16:14;101387.06;;;-4.05;84.17
49055;BME280;35405;52.344;14.530;2023-12-04T08:18:40;101387.47;;;-3.98;84.13
49055;BME280;35405;52.344;14.530;2023-12-04T08:21:05;101388.09;;;-3.85;84.30
49055;BME280;35405;52.344;14.530;2023-12-04T08:23:30;101389.53;;;-3.91;83.67
49055;BME280;35405;52.344;14.530;2023-12-04T08:25:56;101384.91;;;-3.98;83.75
49055;BME280;35405;52.344;14.530;2023-12-04T08:28:22;101394.47;;;-3.77;84.11
49055;BME280;35405;52.344;14.530;2023-12-04T08:30:47;101391.88;;;-3.61;84.22
49055;BME280;35405;52.344;14.530;2023-12-04T08:33:12;101385.63;;;-3.50;84.26
49055;BME280;35405;52.344;14.530;2023-12-04T08:35:37;101390.28;;;-3.41;84.07
49055;BME280;35405;52.344;14.530;2023-12-04T08:38:03;101386.63;;;-3.64;83.09
49055;BME280;35405;52.344;14.530;2023-12-04T08:40:28;101386.56;;;-3.82;83.40
49055;BME280;35405;52.344;14.530;2023-12-04T08:42:53;101384.50;;;-3.89;83.29
49055;BME280;35405;52.344;14.530;2023-12-04T08:45:18;101385.13;;;-3.77;83.72
49055;BME280;35405;52.344;14.530;2023-12-04T08:47:44;101392.94;;;-3.74;83.13
49055;BME280;35405;52.344;14.530;2023-12-04T08:50:09;101397.03;;;-3.77;83.56
49055;BME280;35405;52.344;14.530;2023-12-04T08:52:34;101393.63;;;-3.60;83.63
49055;BME280;35405;52.344;14.530;2023-12-04T08:55:00;101383.69;;;-3.54;83.21
49055;BME280;35405;52.344;14.530;2023-12-04T08:57:25;101383.94;;;-3.49;83.07
49055;BME280;35405;52.344;14.530;2023-12-04T08:59:50;101385.91;;;-3.44;83.39
49055;BME280;35405;52.344;14.530;2023-12-04T09:02:15;101380.34;;;-3.53;82.94
49055;BME280;35405;52.344;14.530;2023-12-04T09:04:41;101385.03;;;-3.44;83.79
49055;BME280;35405;52.344;14.530;2023-12-04T09:07:06;101384.75;;;-3.33;83.78
49055;BME280;35405;52.344;14.530;2023-12-04T09:09:31;101381.78;;;-3.24;84.07
49055;BME280;35405;52.344;14.530;2023-12-04T09:11:57;101383.00;;;-3.16;83.68
49055;BME280;35405;52.344;14.530;2023-12-04T09:14:22;101386.22;;;-3.02;83.86
49055;BME280;35405;52.344;14.530;2023-12-04T09:16:47;101387.81;;;-2.86;84.18
49055;BME280;35405;52.344;14.530;2023-12-04T09:19:13;101388.81;;;-2.83;83.62
49055;BME280;35405;52.344;14.530;2023-12-04T09:21:39;101403.19;;;-2.86;83.59
49055;BME280;35405;52.344;14.530;2023-12-04T09:24:04;101404.28;;;-2.81;83.18
49055;BME280;35405;52.344;14.530;2023-12-04T09:26:29;101399.94;;;-2.64;83.88
49055;BME280;35405;52.344;14.530;2023-12-04T09:28:54;101390.31;;;-2.68;83.45
49055;BME280;35405;52.344;14.530;2023-12-04T09:31:20;101395.69;;;-2.64;84.29
49055;BME280;35405;52.344;14.530;2023-12-04T09:33:45;101387.75;;;-2.51;83.58
49055;BME280;35405;52.344;14.530;2023-12-04T09:36:12;101390.09;;;-2.55;83.11
49055;BME280;35405;52.344;14.530;2023-12-04T09:38:37;101392.38;;;-2.61;83.36
49055;BME280;35405;52.344;14.530;2023-12-04T09:41:03;101386.41;;;-2.42;84.03
49055;BME280;35405;52.344;14.530;2023-12-04T09:43:31;101388.91;;;-2.44;83.82
49055;BME280;35405;52.344;14.530;2023-12-04T09:45:56;101377.09;;;-2.40;83.73
49055;BME280;35405;52.344;14.530;2023-12-04T09:48:23;101377.31;;;-2.36;83.82
49055;BME280;35405;52.344;14.530;2023-12-04T09:50:49;101375.00;;;-2.49;84.00
49055;BME280;35405;52.344;14.530;2023-12-04T09:53:15;101373.88;;;-2.36;84.92
49055;BME280;35405;52.344;14.530;2023-12-04T09:55:40;101369.75;;;-2.13;85.45
49055;BME280;35405;52.344;14.530;2023-12-04T09:58:06;101368.59;;;-2.01;85.13
49055;BME280;35405;52.344;14.530;2023-12-04T10:00:31;101365.41;;;-1.76;85.10
49055;BME280;35405;52.344;14.530;2023-12-04T10:02:57;101360.13;;;-1.58;85.89
49055;BME280;35405;52.344;14.530;2023-12-04T10:05:23;101357.56;;;-1.58;85.25
49055;BME280;35405;52.344;14.530;2023-12-04T10:07:48;101349.44;;;-1.69;85.12
49055;BME280;35405;52.344;14.530;2023-12-04T10:10:14;101344.53;;;-1.62;84.99
49055;BME280;35405;52.344;14.530;2023-12-04T10:12:39;101343.19;;;-1.33;86.35
49055;BME280;35405;52.344;14.530;2023-12-04T10:15:05;101335.25;;;-1.17;86.21
49055;BME280;35405;52.344;14.530;2023-12-04T10:17:38;101332.25;;;-1.28;84.42
49055;BME280;35405;52.344;14.530;2023-12-04T10:22:36;101333.72;;;-1.55;84.69
49055;BME280;35405;52.344;14.530;2023-12-04T10:25:11;101321.28;;;-1.46;85.62
49055;BME280;35405;52.344;14.530;2023-12-04T10:27:38;101324.72;;;-1.46;85.77
49055;BME280;35405;52.344;14.530;2023-12-04T10:30:03;101326.13;;;-1.31;85.89
49055;BME280;35405;52.344;14.530;2023-12-04T10:32:32;101318.13;;;-1.39;85.02
49055;BME280;35405;52.344;14.530;2023-12-04T10:35:01;101319.94;;;-1.36;85.64
49055;BME280;35405;52.344;14.530;2023-12-04T10:37:28;101317.56;;;-1.32;85.87
49055;BME280;35405;52.344;14.530;2023-12-04T10:39:54;101315.50;;;-1.20;85.75
49055;BME280;35405;52.344;14.530;2023-12-04T10:42:26;101314.66;;;-1.19;85.95
49055;BME280;35405;52.344;14.530;2023-12-04T10:44:51;101313.78;;;-0.97;86.30
49055;BME280;35405;52.344;14.530;2023-12-04T10:47:17;101307.22;;;-1.13;85.49
49055;BME280;35405;52.344;14.530;2023-12-04T10:49:42;101308.81;;;-1.15;85.56
49055;BME280;35405;52.344;14.530;2023-12-04T10:52:09;101303.34;;;-1.01;86.10
49055;BME280;35405;52.344;14.530;2023-12-04T10:54:34;101298.41;;;-0.73;86.05
49055;BME280;35405;52.344;14.530;2023-12-04T10:57:00;101306.63;;;-0.59;86.25
49055;BME280;35405;52.344;14.530;2023-12-04T10:59:30;101298.63;;;-0.43;86.45
49055;BME280;35405;52.344;14.530;2023-12-04T11:01:57;101288.03;;;-0.28;86.52
49055;BME280;35405;52.344;14.530;2023-12-04T11:04:26;101289.34;;;-0.39;86.07
49055;BME280;35405;52.344;14.530;2023-12-04T11:06:53;101278.28;;;-0.37;85.68
49055;BME280;35405;52.344;14.530;2023-12-04T11:09:20;101283.91;;;-0.23;86.35
49055;BME280;35405;52.344;14.530;2023-12-04T11:11:46;101267.41;;;-0.30;85.58
49055;BME280;35405;52.344;14.530;2023-12-04T11:14:14;101267.03;;;-0.15;85.89
49055;BME280;35405;52.344;14.530;2023-12-04T11:16:47;101257.91;;;-0.07;86.27
49055;BME280;35405;52.344;14.530;2023-12-04T11:19:14;101257.69;;;0.13;86.18
49055;BME280;35405;52.344;14.530;2023-12-04T11:21:43;101263.53;;;0.07;85.12
49055;BME280;35405;52.344;14.530;2023-12-04T11:24:09;101259.88;;;0.01;85.11
49055;BME280;35405;52.344;14.530;2023-12-04T11:26:35;101259.06;;;-0.22;85.28
49055;BME280;35405;52.344;14.530;2023-12-04T11:29:01;101256.25;;;-0.30;85.39
49055;BME280;35405;52.344;14.530;2023-12-04T11:31:26;101248.53;;;-0.30;84.73
49055;BME280;35405;52.344;14.530;2023-12-04T11:33:52;101248.22;;;-0.39;85.27
49055;BME280;35405;52.344;14.530;2023-12-04T11:36:17;101243.00;;;-0.42;85.81
49055;BME280;35405;52.344;14.530;2023-12-04T11:38:43;101238.38;;;-0.51;85.25
49055;BME280;35405;52.344;14.530;2023-12-04T11:41:16;101235.97;;;-0.46;85.75
49055;BME280;35405;52.344;14.530;2023-12-04T11:43:42;101226.41;;;-0.50;85.78
49055;BME280;35405;52.344;14.530;2023-12-04T11:46:08;101221.78;;;-0.61;84.80
49055;BME280;35405;52.344;14.530;2023-12-04T11:48:34;101214.69;;;-0.68;85.08
49055;BME280;35405;52.344;14.530;2023-12-04T11:51:01;101210.69;;;-0.84;84.74
49055;BME280;35405;52.344;14.530;2023-12-04T11:53:27;101204.47;;;-0.90;85.64
49055;BME280;35405;52.344;14.530;2023-12-04T11:55:52;101206.06;;;-0.92;85.04
49055;BME280;35405;52.344;14.530;2023-12-04T11:58:20;101205.69;;;-0.79;85.42
49055;BME280;35405;52.344;14.530;2023-12-04T12:00:46;101201.28;;;-0.83;85.60
49055;BME280;35405;52.344;14.530;2023-12-04T12:03:14;101197.34;;;-0.73;85.39
49055;BME280;35405;52.344;14.530;2023-12-04T12:05:39;101205.59;;;-0.58;86.12
49055;BME280;35405;52.344;14.530;2023-12-04T12:08:06;101195.03;;;-0.66;85.45
49055;BME280;35405;52.344;14.530;2023-12-04T12:10:32;101197.03;;;-0.57;85.52
49055;BME280;35405;52.344;14.530;2023-12-04T12:12:58;101196.59;;;-0.45;85.76
49055;BME280;35405;52.344;14.530;2023-12-04T12:15:23;101193.41;;;-0.38;85.78
49055;BME280;35405;52.344;14.530;2023-12-04T12:17:49;101188.28;;;-0.38;85.08
49055;BME280;35405;52.344;14.530;2023-12-04T12:20:14;101187.63;;;-0.33;85.92
49055;BME280;35405;52.344;14.530;2023-12-04T12:22:40;101182.72;;;-0.25;86.33
49055;BME280;35405;52.344;14.530;2023-12-04T12:25:11;101178.63;;;-0.20;86.38
49055;BME280;35405;52.344;14.530;2023-12-04T12:27:37;101175.22;;;-0.19;86.37
49055;BME280;35405;52.344;14.530;2023-12-04T12:30:02;101184.72;;;-0.16;86.34
49055;BME280;35405;52.344;14.530;2023-12-04T12:32:29;101177.09;;;0.14;87.02
49055;BME280;35405;52.344;14.530;2023-12-04T12:34:54;101173.13;;;0.23;86.68